createdAt,value
2018-11-05T00:00:25.387Z,72.34
2018-11-05T00:02:53.029Z,72.29
2018-11-05T00:05:20.545Z,72.81
2018-11-05T00:07:48.164Z,73.48
2018-11-05T00:10:15.688Z,72.45
2018-11-05T00:12:43.274Z,73.67
2018-11-05T00:15:10.976Z,74.76
2018-11-05T00:17:38.513Z,74.72
2018-11-05T00:20:06.082Z,74.05
2018-11-05T00:22:33.664Z,73.95
2018-11-05T00:25:01.198Z,73.70
2018-11-05T00:27:28.861Z,73.47
2018-11-05T00:29:56.367Z,73.14
2018-11-05T00:32:23.930Z,72.61
2018-11-05T00:34:51.497Z,73.58
2018-11-05T00:37:19.239Z,72.63
2018-11-05T00:39:46.780Z,73.26
2018-11-05T00:42:14.324Z,72.77
2018-11-05T00:44:42.004Z,73.62
2018-11-05T00:47:09.611Z,73.40
2018-11-05T00:49:37.228Z,72.93
2018-11-05T00:52:04.789Z,73.63
2018-11-05T00:54:32.326Z,73.59
2018-11-05T00:56:59.884Z,73.08
2018-11-05T00:59:27.477Z,73.61
2018-11-05T01:01:55.089Z,73.71
2018-11-05T01:04:22.625Z,74.13
2018-11-05T01:06:50.211Z,73.92
2018-11-05T01:09:17.781Z,73.36
2018-11-05T01:11:45.296Z,73.77
2018-11-05T01:14:12.873Z,74.05
2018-11-05T01:16:40.468Z,73.85
2018-11-05T01:19:08.057Z,73.46
2018-11-05T01:21:35.607Z,73.67
2018-11-05T01:24:03.152Z,74.12
2018-11-05T01:26:30.719Z,73.54
2018-11-05T01:28:58.269Z,73.84
2018-11-05T01:31:25.864Z,73.92
2018-11-05T01:33:53.416Z,74.16
2018-11-05T01:36:21.129Z,73.81
2018-11-05T01:38:48.831Z,73.76
2018-11-05T01:41:16.412Z,74.12
2018-11-05T01:43:44.050Z,74.10
2018-11-05T01:46:11.587Z,73.96
2018-11-05T01:48:39.121Z,74.08
2018-11-05T01:51:06.735Z,73.90
2018-11-05T01:53:34.313Z,73.92
2018-11-05T01:56:01.829Z,74.07
2018-11-05T01:58:29.403Z,73.85
2018-11-05T02:00:56.911Z,73.88
2018-11-05T02:03:24.472Z,74.17
2018-11-05T02:05:52.053Z,74.26
2018-11-05T02:08:19.590Z,74.10
2018-11-05T02:10:47.162Z,74.25
2018-11-05T02:13:14.923Z,74.38
2018-11-05T02:15:42.471Z,73.06
2018-11-05T02:18:09.995Z,74.03
2018-11-05T02:20:37.589Z,73.37
2018-11-05T02:23:05.143Z,74.43
2018-11-05T02:25:32.725Z,74.49
2018-11-05T02:28:00.304Z,74.15
2018-11-05T02:30:27.881Z,74.01
2018-11-05T02:32:55.428Z,73.45
2018-11-05T02:35:22.935Z,74.08
2018-11-05T02:37:50.498Z,74.26
2018-11-05T02:40:18.086Z,74.04
2018-11-05T02:42:45.593Z,75.31
2018-11-05T02:45:13.347Z,75.19
2018-11-05T02:47:40.901Z,74.40
2018-11-05T02:50:08.559Z,77.01
2018-11-05T02:52:36.100Z,77.53
2018-11-05T02:55:03.610Z,76.88
2018-11-05T02:57:31.165Z,76.88
2018-11-05T02:59:58.685Z,76.38
2018-11-05T03:02:26.297Z,75.97
2018-11-05T03:04:53.818Z,77.87
2018-11-05T03:07:21.473Z,77.09
2018-11-05T03:09:49.000Z,76.71
2018-11-05T03:12:16.550Z,77.51
2018-11-05T03:14:44.138Z,79.03
2018-11-05T03:17:12.141Z,79.86
2018-11-05T03:19:39.677Z,79.67
2018-11-05T03:22:07.331Z,80.80
2018-11-05T03:24:34.887Z,81.60
2018-11-05T03:27:02.458Z,80.97
2018-11-05T03:29:30.054Z,80.06
2018-11-05T03:31:57.585Z,79.50
2018-11-05T03:34:25.180Z,78.86
2018-11-05T03:36:52.745Z,78.12
2018-11-05T03:39:20.285Z,80.72
2018-11-05T03:41:47.852Z,79.29
2018-11-05T03:44:15.417Z,80.20
2018-11-05T03:46:42.973Z,79.65
2018-11-05T03:49:10.537Z,78.77
2018-11-05T03:51:38.061Z,78.44
2018-11-05T03:54:05.639Z,78.00
2018-11-05T03:56:33.333Z,77.00
2018-11-05T03:59:00.857Z,76.75
2018-11-05T04:01:28.489Z,76.25
2018-11-05T04:03:56.033Z,76.00
2018-11-05T04:06:23.533Z,75.85
2018-11-05T04:08:51.071Z,78.54
2018-11-05T04:11:18.602Z,79.48
2018-11-05T04:13:46.201Z,80.00
2018-11-05T04:16:13.888Z,79.56
2018-11-05T04:18:41.341Z,79.87
2018-11-05T04:21:08.920Z,80.30
2018-11-05T04:23:36.494Z,81.63
2018-11-05T04:26:04.029Z,81.30
2018-11-05T04:28:31.565Z,80.48
2018-11-05T04:30:59.156Z,81.63
2018-11-05T04:33:26.703Z,81.47
2018-11-05T04:35:54.288Z,83.07
2018-11-05T04:38:21.814Z,82.97
2018-11-05T04:40:49.334Z,82.22
2018-11-05T04:43:16.914Z,82.74
2018-11-05T04:45:44.455Z,83.27
2018-11-05T04:48:11.970Z,82.80
2018-11-05T04:50:39.528Z,82.91
2018-11-05T04:53:07.107Z,81.83
2018-11-05T04:55:34.623Z,81.86
2018-11-05T04:58:02.169Z,81.89
2018-11-05T05:00:29.722Z,82.42
2018-11-05T05:02:57.277Z,81.94
2018-11-05T05:05:24.791Z,81.70
2018-11-05T05:07:52.422Z,80.83
2018-11-05T05:10:19.988Z,80.36
2018-11-05T05:12:47.521Z,81.09
2018-11-05T05:15:15.107Z,80.33
2018-11-05T05:17:42.640Z,81.36
2018-11-05T05:20:10.204Z,80.57
2018-11-05T05:22:37.858Z,81.65
2018-11-05T05:25:05.337Z,80.90
2018-11-05T05:27:33.020Z,81.33
2018-11-05T05:30:00.531Z,80.25
2018-11-05T05:32:28.086Z,80.67
2018-11-05T05:34:55.686Z,81.08
2018-11-05T05:37:23.255Z,80.61
2018-11-05T05:39:50.851Z,79.94
2018-11-05T05:42:18.382Z,79.56
2018-11-05T05:44:45.934Z,79.64
2018-11-05T05:47:13.481Z,79.00
2018-11-05T05:49:40.979Z,78.72
2018-11-05T05:52:08.509Z,78.54
2018-11-05T05:54:36.089Z,78.27
2018-11-05T05:57:03.718Z,78.34
2018-11-05T05:59:31.260Z,78.39
2018-11-05T06:01:58.973Z,78.22
2018-11-05T06:04:26.489Z,77.99
2018-11-05T06:06:54.027Z,77.90
2018-11-05T06:09:21.613Z,78.46
2018-11-05T06:11:49.118Z,77.86
2018-11-05T06:14:16.707Z,77.65
2018-11-05T06:16:44.275Z,77.47
2018-11-05T06:19:12.381Z,77.55
2018-11-05T06:21:39.916Z,77.61
2018-11-05T06:24:07.446Z,77.28
2018-11-05T06:26:35.004Z,78.50
2018-11-05T06:29:02.561Z,79.44
2018-11-05T06:31:30.067Z,78.78
2018-11-05T06:33:57.637Z,78.79
2018-11-05T06:36:25.152Z,78.80
2018-11-05T06:38:52.702Z,78.82
2018-11-05T06:41:20.474Z,78.55
2018-11-05T06:43:47.990Z,78.09
2018-11-05T06:46:15.643Z,78.08
2018-11-05T06:48:43.213Z,77.91
2018-11-05T06:51:10.807Z,77.62
2018-11-05T06:53:38.350Z,77.48
2018-11-05T06:56:06.330Z,77.09
2018-11-05T06:58:33.927Z,76.90
2018-11-05T07:01:01.490Z,77.47
2018-11-05T07:03:29.013Z,78.03
2018-11-05T07:05:56.712Z,78.39
2018-11-05T07:08:24.185Z,78.03
2018-11-05T07:10:51.739Z,78.16
2018-11-05T07:13:19.304Z,79.29
2018-11-05T07:15:47.004Z,79.75
2018-11-05T07:18:14.594Z,78.66
2018-11-05T07:20:42.204Z,78.88
2018-11-05T07:23:09.785Z,81.43
2018-11-05T07:25:37.320Z,80.08
2018-11-05T07:28:04.906Z,80.20
2018-11-05T07:30:32.710Z,80.89
2018-11-05T07:33:00.250Z,79.71
2018-11-05T07:35:27.927Z,78.87
2018-11-05T07:37:55.508Z,78.66
2018-11-05T07:40:23.036Z,77.96
2018-11-05T07:42:50.697Z,77.67
2018-11-05T07:45:18.265Z,77.64
2018-11-05T07:47:45.815Z,77.62
2018-11-05T07:50:13.406Z,77.18
2018-11-05T07:52:40.918Z,76.95
2018-11-05T07:55:08.453Z,77.22
2018-11-05T07:57:36.011Z,77.44
2018-11-05T08:00:03.722Z,77.78
2018-11-05T08:02:31.297Z,77.73
2018-11-05T08:04:58.936Z,77.71
2018-11-05T08:07:26.505Z,77.84
2018-11-05T08:09:54.040Z,77.61
2018-11-05T08:12:21.628Z,77.49
2018-11-05T08:14:49.391Z,77.33
2018-11-05T08:17:16.949Z,77.42
2018-11-05T08:19:44.590Z,77.79
2018-11-05T08:22:12.183Z,77.91
2018-11-05T08:24:39.764Z,77.98
2018-11-05T08:27:07.287Z,78.32
2018-11-05T08:29:34.839Z,78.46
2018-11-05T08:32:02.385Z,78.34
2018-11-05T08:34:29.958Z,78.35
2018-11-05T08:36:58.882Z,78.24
2018-11-05T08:39:26.448Z,78.32
2018-11-05T08:41:54.025Z,78.39
2018-11-05T08:44:21.566Z,78.89
2018-11-05T08:46:49.205Z,78.86
2018-11-05T08:49:16.683Z,78.08
2018-11-05T08:51:44.624Z,78.61
2018-11-05T08:54:11.947Z,79.04
2018-11-05T08:56:39.422Z,79.05
2018-11-05T08:59:06.968Z,79.08
2018-11-05T09:01:34.576Z,79.02
2018-11-05T09:04:02.254Z,78.95
2018-11-05T09:06:29.826Z,79.09
2018-11-05T09:08:57.372Z,79.01
2018-11-05T09:11:25.365Z,78.49
2018-11-05T09:13:52.690Z,79.20
2018-11-05T09:16:20.352Z,78.85
2018-11-05T09:18:47.983Z,78.54
2018-11-05T09:21:16.372Z,78.37
2018-11-05T09:23:44.000Z,78.79
2018-11-05T09:26:11.535Z,79.06
2018-11-05T09:28:39.058Z,78.67
2018-11-05T09:31:06.650Z,79.03
2018-11-05T09:33:34.292Z,78.54
2018-11-05T09:36:01.835Z,78.87
2018-11-05T09:38:29.390Z,78.67
2018-11-05T09:40:56.922Z,78.51
2018-11-05T09:43:24.552Z,78.31
2018-11-05T09:45:52.172Z,78.62
2018-11-05T09:48:20.067Z,78.64
2018-11-05T09:50:47.873Z,78.46
2018-11-05T09:53:15.412Z,78.70
2018-11-05T09:55:42.954Z,78.98
2018-11-05T09:58:10.520Z,78.80
2018-11-05T10:00:38.077Z,78.38
2018-11-05T10:03:05.849Z,78.47
2018-11-05T10:05:33.352Z,78.56
2018-11-05T10:08:00.893Z,78.78
2018-11-05T10:10:28.916Z,78.36
2018-11-05T10:13:04.629Z,79.24
2018-11-05T10:15:32.442Z,79.08
2018-11-05T10:18:00.027Z,78.79
2018-11-05T10:20:27.589Z,79.59
2018-11-05T10:22:55.182Z,79.62
2018-11-05T10:25:22.804Z,78.81
2018-11-05T10:27:50.379Z,79.22
2018-11-05T10:30:18.089Z,80.10
2018-11-05T10:32:45.847Z,79.43
2018-11-05T10:35:13.429Z,79.10
2018-11-05T10:37:41.027Z,79.53
2018-11-05T10:40:10.293Z,79.44
2018-11-05T10:42:38.017Z,79.31
2018-11-05T10:45:05.720Z,78.89
2018-11-05T10:47:33.474Z,78.56
2018-11-05T10:50:01.295Z,79.28
2018-11-05T10:52:28.989Z,78.93
2018-11-05T10:54:56.473Z,79.01
2018-11-05T10:57:24.019Z,79.06
2018-11-05T10:59:51.550Z,78.96
2018-11-05T11:02:19.170Z,79.17
2018-11-05T11:04:46.782Z,81.11
2018-11-05T11:07:14.300Z,79.14
2018-11-05T11:09:42.124Z,78.91
2018-11-05T11:12:09.604Z,78.90
2018-11-05T11:14:37.185Z,78.15
2018-11-05T11:17:04.873Z,78.57
2018-11-05T11:19:32.395Z,79.54
2018-11-05T11:22:00.038Z,78.84
2018-11-05T11:24:27.592Z,78.50
2018-11-05T11:26:55.131Z,78.14
2018-11-05T11:29:22.854Z,78.42
2018-11-05T11:31:50.269Z,77.55
2018-11-05T11:34:17.839Z,77.14
2018-11-05T11:36:45.820Z,77.61
2018-11-05T11:39:13.386Z,78.33
2018-11-05T11:41:41.186Z,78.74
2018-11-05T11:44:08.746Z,77.77
2018-11-05T11:46:36.340Z,77.83
2018-11-05T11:49:03.925Z,77.58
2018-11-05T11:51:31.514Z,77.29
2018-11-05T11:53:59.031Z,77.46
2018-11-05T11:56:26.771Z,78.12
2018-11-05T11:58:54.377Z,77.30
2018-11-05T12:01:22.023Z,77.07
2018-11-05T12:03:49.775Z,77.06
2018-11-05T12:06:17.331Z,76.07
2018-11-05T12:08:44.877Z,75.77
2018-11-05T12:11:12.466Z,75.65
2018-11-05T12:13:39.988Z,76.37
2018-11-05T12:16:07.671Z,75.57
2018-11-05T12:18:35.292Z,75.11
2018-11-05T12:21:02.994Z,76.59
2018-11-05T12:23:30.514Z,75.59
2018-11-05T12:25:58.143Z,75.12
2018-11-05T12:28:25.765Z,75.55
2018-11-05T12:30:53.378Z,75.62
2018-11-05T12:33:20.948Z,74.87
2018-11-05T12:35:48.532Z,74.76
2018-11-05T12:38:16.110Z,74.78
2018-11-05T12:40:43.692Z,75.07
2018-11-05T12:43:11.359Z,74.50
2018-11-05T12:45:39.038Z,74.65
2018-11-05T12:48:06.608Z,74.42
2018-11-05T12:50:34.365Z,74.33
2018-11-05T12:53:02.059Z,74.33
2018-11-05T12:55:29.868Z,74.27
2018-11-05T12:57:57.406Z,74.91
2018-11-05T13:00:24.992Z,74.27
2018-11-05T13:02:52.565Z,75.07
2018-11-05T13:05:20.326Z,74.13
2018-11-05T13:07:47.919Z,74.10
2018-11-05T13:10:15.517Z,73.88
2018-11-05T13:12:43.105Z,73.63
2018-11-05T13:15:10.799Z,73.62
2018-11-05T13:17:38.601Z,73.60
2018-11-05T13:20:06.312Z,73.57
2018-11-05T13:22:34.029Z,73.11
2018-11-05T13:25:01.818Z,73.20
2018-11-05T13:27:29.352Z,73.06
2018-11-05T13:29:57.089Z,73.13
2018-11-05T13:32:24.768Z,73.05
2018-11-05T13:34:52.289Z,72.72
2018-11-05T13:37:20.215Z,72.79
2018-11-05T13:39:47.450Z,72.69
2018-11-05T13:42:15.012Z,72.63
2018-11-05T13:44:42.728Z,73.17
2018-11-05T13:47:10.975Z,72.63
2018-11-05T14:55:46.525Z,72.95
2018-11-05T14:58:14.072Z,73.07
2018-11-05T15:00:41.730Z,72.98
2018-11-05T15:03:09.453Z,73.16
2018-11-05T15:05:37.131Z,72.97
2018-11-05T15:08:04.678Z,72.88
2018-11-05T15:10:32.573Z,72.76
2018-11-05T15:13:00.959Z,72.64
2018-11-05T15:15:28.959Z,72.82
2018-11-05T15:17:56.755Z,72.51
2018-11-05T15:20:24.572Z,72.66
2018-11-05T15:22:52.287Z,72.66
2018-11-05T15:25:19.978Z,72.55
2018-11-05T15:27:47.611Z,72.54
2018-11-05T15:30:15.224Z,72.54
2018-11-05T15:32:43.340Z,72.46
2018-11-05T15:35:11.078Z,72.44
2018-11-05T15:37:38.672Z,72.69
2018-11-05T15:40:06.279Z,72.71
2018-11-05T15:42:33.860Z,73.16
2018-11-05T15:45:01.401Z,72.82
2018-11-05T15:47:29.008Z,73.48
2018-11-05T15:49:56.560Z,73.51
2018-11-05T15:52:24.227Z,74.38
2018-11-05T15:54:51.865Z,74.42
2018-11-05T15:57:19.667Z,73.94
2018-11-05T15:59:47.417Z,73.85
2018-11-05T16:02:14.974Z,73.57
2018-11-05T16:04:42.685Z,73.31
2018-11-05T16:07:10.269Z,73.35
2018-11-05T16:09:37.807Z,73.08
2018-11-05T16:12:05.357Z,74.50
2018-11-05T16:14:33.101Z,73.43
2018-11-05T16:17:00.884Z,73.30
2018-11-05T16:19:28.571Z,73.49
2018-11-05T16:21:56.099Z,74.36
2018-11-05T16:24:23.744Z,73.85
2018-11-05T16:26:51.265Z,74.41
2018-11-05T16:29:18.859Z,74.60
2018-11-05T16:31:46.372Z,74.15
2018-11-05T16:34:13.968Z,73.78
2018-11-05T16:36:41.731Z,74.61
2018-11-05T16:39:09.310Z,74.57
2018-11-05T16:41:36.872Z,73.76
2018-11-05T16:44:04.428Z,74.37
2018-11-05T16:46:32.006Z,74.59
2018-11-05T16:48:59.828Z,75.00
2018-11-05T16:51:27.655Z,74.56
2018-11-05T16:53:55.391Z,74.72
2018-11-05T16:56:22.935Z,74.76
2018-11-05T16:58:50.515Z,74.50
2018-11-05T17:01:18.274Z,75.22
2018-11-05T17:03:45.746Z,74.54
2018-11-05T17:06:13.373Z,74.51
2018-11-05T17:08:40.954Z,74.93
2018-11-05T17:11:08.526Z,75.37
2018-11-05T17:13:36.195Z,75.25
2018-11-05T17:16:03.794Z,74.76
2018-11-05T17:18:31.438Z,75.52
2018-11-05T17:20:59.105Z,75.49
2018-11-05T17:23:26.638Z,75.62
2018-11-05T17:25:54.369Z,75.96
2018-11-05T17:28:21.962Z,75.02
2018-11-05T17:30:49.667Z,76.46
2018-11-05T17:33:17.363Z,75.87
2018-11-05T17:35:45.254Z,75.85
2018-11-05T17:38:12.954Z,75.33
2018-11-05T17:40:40.636Z,75.12
2018-11-05T17:43:08.466Z,74.91
2018-11-05T17:45:36.165Z,75.08
2018-11-05T17:48:03.853Z,75.93
2018-11-05T17:50:31.413Z,75.63
2018-11-05T17:52:59.085Z,76.13
2018-11-05T17:55:26.659Z,75.80
2018-11-05T17:57:54.331Z,75.78
2018-11-05T18:00:21.898Z,76.00
2018-11-05T18:02:49.430Z,75.76
2018-11-05T18:05:17.212Z,75.52
2018-11-05T18:07:44.893Z,75.11
2018-11-05T18:10:12.590Z,75.03
2018-11-05T18:12:40.107Z,75.07
2018-11-05T18:15:07.953Z,75.39
2018-11-05T18:17:35.582Z,76.22
2018-11-05T18:20:03.295Z,76.41
2018-11-05T18:22:31.009Z,75.77
2018-11-05T18:24:59.561Z,76.76
2018-11-05T18:27:27.582Z,77.10
2018-11-05T18:29:55.339Z,76.40
2018-11-05T18:32:23.008Z,76.23
2018-11-05T18:34:50.740Z,75.68
2018-11-05T18:37:18.402Z,76.74
2018-11-05T20:08:48.121Z,80.03
2018-11-05T20:11:16.843Z,80.17
2018-11-05T20:13:45.802Z,80.43
2018-11-05T20:16:15.195Z,80.74
2018-11-05T20:18:44.396Z,79.80
2018-11-05T20:21:12.154Z,80.26
2018-11-05T20:23:44.963Z,79.32
2018-11-05T20:26:14.285Z,79.41
2018-11-05T20:28:44.203Z,79.45
2018-11-05T20:31:12.652Z,80.20
2018-11-05T20:33:42.164Z,78.60
2018-11-05T20:36:10.841Z,78.24
2018-11-05T20:38:41.632Z,78.24
2018-11-05T20:41:10.769Z,78.13
2018-11-05T20:43:44.848Z,78.30
2018-11-05T20:46:13.999Z,77.90
2018-11-05T20:48:43.863Z,77.73
2018-11-05T20:51:14.266Z,78.49
2018-11-05T20:53:43.717Z,78.13
2018-11-05T20:56:13.036Z,77.96
2018-11-05T20:58:41.915Z,78.78
2018-11-05T21:01:11.280Z,78.51
2018-11-05T21:03:43.452Z,79.22
2018-11-05T21:06:12.627Z,77.98
2018-11-05T21:08:40.326Z,78.26
2018-11-05T21:11:08.267Z,78.13
2018-11-05T21:13:37.571Z,77.46
2018-11-05T21:16:06.472Z,78.16
2018-11-05T21:18:36.293Z,78.66
2018-11-05T21:21:05.935Z,78.69
2018-11-05T21:23:34.132Z,78.32
2018-11-05T21:28:34.332Z,79.64
2018-11-05T21:31:01.920Z,79.83
2018-11-05T21:36:05.307Z,78.58
2018-11-05T21:38:33.789Z,77.64
2018-11-05T21:41:01.400Z,77.34
2018-11-05T21:43:28.938Z,77.07
2018-11-05T21:45:56.540Z,77.23
2018-11-05T21:51:04.010Z,76.84
2018-11-05T21:53:31.573Z,77.69
2018-11-05T21:55:59.120Z,78.43
2018-11-05T21:58:26.787Z,79.27
2018-11-05T22:01:11.875Z,79.61
2018-11-05T22:03:58.826Z,79.70
2018-11-05T22:06:26.992Z,79.75
2018-11-05T22:08:54.773Z,79.86
2018-11-05T22:11:22.415Z,79.82
2018-11-05T22:13:56.334Z,79.30
2018-11-05T22:16:24.037Z,79.14
2018-11-05T22:18:51.732Z,79.23
2018-11-05T22:21:19.483Z,78.79
2018-11-05T22:23:47.232Z,78.30
2018-11-05T22:26:14.956Z,78.43
2018-11-05T22:28:42.541Z,78.60
2018-11-05T22:31:10.127Z,78.16
2018-11-05T22:33:37.798Z,78.32
2018-11-05T22:36:05.626Z,78.65
2018-11-05T22:38:33.545Z,79.05
2018-11-05T22:41:01.447Z,78.39
2018-11-05T22:43:29.333Z,78.34
2018-11-05T22:45:58.752Z,77.98
2018-11-05T22:48:26.938Z,77.97
2018-11-05T22:50:54.626Z,77.66
2018-11-05T22:53:23.297Z,77.96
2018-11-05T22:55:50.900Z,79.46
2018-11-05T22:58:18.491Z,79.39
2018-11-05T23:00:46.127Z,78.98
2018-11-05T23:03:13.714Z,78.50
2018-11-05T23:05:41.398Z,79.40
2018-11-05T23:08:08.952Z,78.35
2018-11-05T23:10:36.813Z,78.27
2018-11-05T23:13:04.410Z,78.18
2018-11-05T23:15:31.969Z,78.21
2018-11-05T23:17:59.563Z,77.79
2018-11-05T23:20:27.155Z,78.45
2018-11-05T23:22:54.752Z,77.98
2018-11-05T23:25:22.348Z,77.64
2018-11-05T23:27:50.298Z,77.83
2018-11-05T23:30:22.595Z,77.57
2018-11-05T23:32:50.278Z,77.32
2018-11-05T23:35:18.261Z,77.38
2018-11-05T23:37:45.873Z,77.71
2018-11-05T23:40:13.686Z,77.78
2018-11-05T23:42:41.315Z,77.36
2018-11-05T23:45:09.341Z,77.35
2018-11-05T23:47:37.012Z,77.03
2018-11-05T23:50:04.804Z,77.03
2018-11-05T23:52:34.694Z,76.83
2018-11-05T23:55:02.598Z,76.38
2018-11-05T23:57:30.221Z,77.22
2018-11-05T23:59:58.001Z,77.33
